createdAt,value
2018-03-27T00:00:24.073Z,29.52
2018-03-27T00:01:13.261Z,28.20
2018-03-27T00:02:02.330Z,27.25
2018-03-27T00:02:51.413Z,23.23
2018-03-27T00:03:40.481Z,27.37
2018-03-27T00:04:29.545Z,29.25
2018-03-27T00:05:18.676Z,27.17
2018-03-27T00:06:07.769Z,27.70
2018-03-27T00:06:56.966Z,28.00
2018-03-27T00:07:46.060Z,28.12
2018-03-27T00:08:35.113Z,25.10
2018-03-27T00:09:24.178Z,19.55
2018-03-27T00:10:13.240Z,22.70
2018-03-27T00:11:02.354Z,19.95
2018-03-27T00:11:51.454Z,22.67
2018-03-27T00:12:40.537Z,23.25
2018-03-27T00:13:29.643Z,21.67
2018-03-27T00:14:18.931Z,20.73
2018-03-27T00:15:07.996Z,23.98
2018-03-27T00:15:57.061Z,24.37
2018-03-27T00:16:49.366Z,23.62
2018-03-27T00:17:38.425Z,22.70
2018-03-27T00:18:27.511Z,24.80
2018-03-27T00:19:16.573Z,19.58
2018-03-27T00:20:05.686Z,22.27
2018-03-27T00:20:54.754Z,17.30
2018-03-27T00:21:43.819Z,16.48
2018-03-27T00:22:32.925Z,24.87
2018-03-27T00:23:21.990Z,24.23
2018-03-27T00:24:11.047Z,20.88
2018-03-27T00:25:00.371Z,24.35
2018-03-27T00:25:49.479Z,25.10
2018-03-27T03:00:55.150Z,14.80
2018-03-27T03:01:44.568Z,16.37
2018-03-27T03:02:33.624Z,28.83
2018-03-27T03:03:22.693Z,39.20
2018-03-27T03:04:11.797Z,29.00
2018-03-27T03:05:00.872Z,15.52
2018-03-27T03:05:49.933Z,12.48
2018-03-27T03:06:39.114Z,14.02
2018-03-27T03:07:28.221Z,13.68
2018-03-27T03:08:17.274Z,14.02
2018-03-27T03:09:06.339Z,11.70
2018-03-27T03:09:55.424Z,13.85
2018-03-27T03:10:44.521Z,10.60
2018-03-27T03:11:33.574Z,13.18
2018-03-27T03:12:22.673Z,14.35
2018-03-27T03:13:11.717Z,11.32
2018-03-27T03:14:00.845Z,10.88
2018-03-27T03:14:49.891Z,11.50
2018-03-27T03:15:38.987Z,14.07
2018-03-27T03:16:28.052Z,12.10
2018-03-27T03:17:17.106Z,10.75
2018-03-27T03:18:06.266Z,10.88
2018-03-27T03:18:55.378Z,10.70
2018-03-27T03:19:44.462Z,12.85
2018-03-27T03:20:33.520Z,9.55
2018-03-27T03:21:22.562Z,10.68
2018-03-27T03:22:11.649Z,17.35
2018-03-27T03:23:00.699Z,15.15
2018-03-27T03:23:51.002Z,10.27
2018-03-27T03:24:40.054Z,11.15
2018-03-27T03:25:29.102Z,13.80
2018-03-27T03:26:18.148Z,15.90
2018-03-27T03:27:07.199Z,11.60
2018-03-27T03:27:56.258Z,16.52
2018-03-27T03:28:45.374Z,24.80
2018-03-27T03:29:34.433Z,20.40
2018-03-27T03:30:23.509Z,18.05
2018-03-27T03:31:12.598Z,18.20
2018-03-27T03:32:01.668Z,19.73
2018-03-27T03:32:50.727Z,24.02
2018-03-27T03:33:39.779Z,18.80
2018-03-27T03:34:28.894Z,30.85
2018-03-27T03:35:17.948Z,20.23
2018-03-27T03:36:07.018Z,17.05
2018-03-27T03:36:56.072Z,20.30
2018-03-27T03:37:45.137Z,18.95
2018-03-27T03:38:34.302Z,25.85
2018-03-27T03:39:23.356Z,26.08
2018-03-27T03:40:12.444Z,29.00
2018-03-27T03:41:01.506Z,25.17
2018-03-27T03:41:50.578Z,26.00
2018-03-27T03:42:39.642Z,24.55
2018-03-27T03:43:28.694Z,24.12
2018-03-27T03:44:17.860Z,24.63
2018-03-27T03:45:06.926Z,43.83
2018-03-27T03:45:55.994Z,20.88
2018-03-27T03:46:45.065Z,40.92
2018-03-27T03:47:34.360Z,20.05
2018-03-27T03:48:23.452Z,17.08
2018-03-27T03:49:12.510Z,23.75
2018-03-27T03:50:01.573Z,60.20
2018-03-27T03:50:50.628Z,24.98
2018-03-27T03:51:39.699Z,26.75
2018-03-27T03:52:28.764Z,43.20
2018-03-27T03:53:17.816Z,40.03
2018-03-27T03:54:06.929Z,21.27
2018-03-27T03:54:55.994Z,29.70
2018-03-27T03:55:45.061Z,24.70
2018-03-27T03:56:34.128Z,25.58
2018-03-27T03:57:23.190Z,19.85
2018-03-27T03:58:12.252Z,17.58
2018-03-27T03:59:01.409Z,24.63
2018-03-27T03:59:50.472Z,21.87
2018-03-27T04:00:39.538Z,20.20
2018-03-27T04:01:28.643Z,22.25
2018-03-27T04:02:17.707Z,23.87
2018-03-27T04:03:06.761Z,25.30
2018-03-27T04:03:55.828Z,18.05
2018-03-27T04:04:45.008Z,18.35
2018-03-27T04:05:34.081Z,22.80
2018-03-27T04:06:23.144Z,25.30
2018-03-27T04:07:12.200Z,24.12
2018-03-27T04:08:01.284Z,23.17
2018-03-27T04:08:50.339Z,24.08
2018-03-27T04:09:39.445Z,21.92
2018-03-27T04:10:28.505Z,39.25
2018-03-27T04:11:17.612Z,23.02
2018-03-27T04:12:09.137Z,24.83
2018-03-27T04:12:58.344Z,25.50
2018-03-27T04:13:47.425Z,36.03
2018-03-27T04:14:36.696Z,48.85
2018-03-27T04:15:25.791Z,43.63
2018-03-27T04:16:14.857Z,41.28
2018-03-27T04:17:04.019Z,48.03
2018-03-27T04:17:53.070Z,56.65
2018-03-27T04:18:42.133Z,56.13
2018-03-27T04:19:31.212Z,71.03
2018-03-27T04:20:20.271Z,70.93
2018-03-27T04:21:09.328Z,70.00
2018-03-27T04:21:58.392Z,66.20
2018-03-27T04:22:47.498Z,65.10
2018-03-27T04:23:36.565Z,69.78
2018-03-27T04:24:25.626Z,62.88
2018-03-27T04:25:14.688Z,63.05
2018-03-27T04:26:03.794Z,59.65
2018-03-27T04:26:52.839Z,59.30
2018-03-27T04:27:41.895Z,57.80
2018-03-27T04:28:31.048Z,51.58
2018-03-27T04:29:20.107Z,49.42
2018-03-27T04:30:09.165Z,49.08
2018-03-27T04:30:58.227Z,38.45
2018-03-27T04:31:47.291Z,34.17
2018-03-27T04:32:36.366Z,36.78
2018-03-27T04:33:25.485Z,41.53
2018-03-27T04:34:14.535Z,41.28
2018-03-27T04:35:03.609Z,38.92
2018-03-27T04:35:52.767Z,43.90
2018-03-27T04:36:44.449Z,39.53
2018-03-27T04:37:33.512Z,40.05
2018-03-27T04:38:22.578Z,40.80
2018-03-27T04:39:11.638Z,40.12
2018-03-27T04:40:00.711Z,40.45
2018-03-27T04:40:49.765Z,34.72
2018-03-27T04:41:38.892Z,37.28
2018-03-27T04:42:27.947Z,38.67
2018-03-27T04:43:16.998Z,34.90
2018-03-27T04:44:06.051Z,28.90
2018-03-27T04:44:55.121Z,30.23
2018-03-27T04:45:44.182Z,30.95
2018-03-27T04:46:33.258Z,28.95
2018-03-27T04:47:22.537Z,33.38
2018-03-27T04:48:11.605Z,31.62
2018-03-27T04:49:00.661Z,30.33
2018-03-27T04:49:50.065Z,27.05
2018-03-27T04:50:39.132Z,31.60
2018-03-27T04:51:28.194Z,46.58
2018-03-27T04:52:17.254Z,69.00
2018-03-27T04:53:06.406Z,52.60
2018-03-27T04:53:55.465Z,56.10
2018-03-27T04:54:44.517Z,40.88
2018-03-27T04:55:33.571Z,54.50
2018-03-27T04:56:22.633Z,47.75
2018-03-27T04:57:11.692Z,78.07
2018-03-27T04:58:00.753Z,81.20
2018-03-27T04:58:49.869Z,82.50
2018-03-27T04:59:38.928Z,79.72
2018-03-27T05:00:27.996Z,94.45
2018-03-27T05:01:17.058Z,119.45
2018-03-27T05:02:06.173Z,76.62
2018-03-27T05:02:55.272Z,98.43
2018-03-27T05:03:44.329Z,80.62
2018-03-27T05:04:33.394Z,75.45
2018-03-27T05:05:22.491Z,86.55
2018-03-27T05:06:11.553Z,82.12
2018-03-27T05:07:00.611Z,98.72
2018-03-27T05:07:49.672Z,85.10
2018-03-27T05:08:38.838Z,80.70
2018-03-27T05:09:27.897Z,83.90
2018-03-27T05:10:16.986Z,71.40
2018-03-27T05:11:06.060Z,65.28
2018-03-27T05:11:55.118Z,64.57
2018-03-27T05:12:44.179Z,76.28
2018-03-27T05:13:33.242Z,67.78
2018-03-27T05:14:22.412Z,65.05
2018-03-27T05:15:11.473Z,72.82
2018-03-27T05:16:00.557Z,82.70
2018-03-27T05:16:49.614Z,158.00
2018-03-27T05:17:38.684Z,104.97
2018-03-27T05:18:27.761Z,127.95
2018-03-27T05:19:16.822Z,96.37
2018-03-27T05:20:05.956Z,93.60
2018-03-27T05:20:55.021Z,94.00
2018-03-27T05:21:44.095Z,101.05
2018-03-27T05:22:33.173Z,101.90
2018-03-27T05:23:22.235Z,102.00
2018-03-27T05:24:11.310Z,104.50
2018-03-27T05:25:00.416Z,96.97
2018-03-27T05:25:49.525Z,98.50
2018-03-27T05:26:38.581Z,91.10
2018-03-27T05:27:27.651Z,89.47
2018-03-27T05:28:16.804Z,86.30
2018-03-27T05:29:06.197Z,83.57
2018-03-27T05:29:55.254Z,81.25
2018-03-27T05:30:44.358Z,69.95
2018-03-27T05:31:33.418Z,64.55
2018-03-27T05:32:22.485Z,65.35
2018-03-27T05:33:11.531Z,61.83
2018-03-27T05:34:00.649Z,53.58
2018-03-27T05:34:49.700Z,41.58
2018-03-27T05:35:38.748Z,56.75
2018-03-27T05:36:27.811Z,46.67
2018-03-27T05:37:16.884Z,46.42
2018-03-27T05:38:05.940Z,47.00
2018-03-27T05:38:55.025Z,43.80
2018-03-27T05:39:44.198Z,35.40
2018-03-27T05:40:33.263Z,33.15
2018-03-27T05:41:22.570Z,39.60
2018-03-27T05:42:11.629Z,44.42
2018-03-27T05:43:00.696Z,54.80
2018-03-27T05:43:49.752Z,48.97
2018-03-27T05:44:38.808Z,47.08
2018-03-27T05:45:27.925Z,45.83
2018-03-27T05:46:16.976Z,42.50
2018-03-27T05:47:06.097Z,57.22
2018-03-27T05:47:55.152Z,45.38
2018-03-27T05:48:44.208Z,55.88
2018-03-27T05:49:33.266Z,43.13
2018-03-27T05:50:22.339Z,43.17
2018-03-27T05:51:11.397Z,41.42
2018-03-27T05:52:00.554Z,40.92
2018-03-27T05:52:49.609Z,38.83
2018-03-27T05:53:38.669Z,35.00
2018-03-27T05:54:27.773Z,39.83
2018-03-27T05:55:16.833Z,42.15
2018-03-27T05:56:05.959Z,39.22
2018-03-27T05:56:55.025Z,39.22
2018-03-27T05:57:44.124Z,38.60
2018-03-27T05:58:33.183Z,44.58
2018-03-27T05:59:22.250Z,57.13
2018-03-27T06:00:11.365Z,49.97
2018-03-27T06:01:00.440Z,55.08
2018-03-27T06:01:49.503Z,44.70
2018-03-27T06:02:38.571Z,49.08
2018-03-27T06:03:27.748Z,46.53
2018-03-27T06:04:16.815Z,52.33
2018-03-27T06:05:05.894Z,70.28
2018-03-27T06:05:55.016Z,64.53
2018-03-27T06:06:44.076Z,63.95
2018-03-27T06:07:33.393Z,65.65
2018-03-27T06:08:22.460Z,65.97
2018-03-27T06:09:11.512Z,85.38
2018-03-27T06:10:00.590Z,103.28
2018-03-27T06:10:49.649Z,94.68
2018-03-27T06:11:38.710Z,90.72
2018-03-27T06:12:27.764Z,93.87
2018-03-27T06:13:16.877Z,88.07
2018-03-27T06:14:05.985Z,79.65
2018-03-27T06:14:55.038Z,70.87
2018-03-27T06:15:44.096Z,61.83
2018-03-27T06:16:33.176Z,62.85
2018-03-27T06:17:22.250Z,63.42
2018-03-27T06:18:11.329Z,62.28
2018-03-27T06:19:00.506Z,55.47
2018-03-27T06:19:49.610Z,57.95
2018-03-27T06:20:38.677Z,65.05
2018-03-27T06:21:27.744Z,66.70
2018-03-27T06:22:16.802Z,69.32
2018-03-27T06:23:05.978Z,62.20
2018-03-27T06:23:55.034Z,64.57
2018-03-27T06:24:44.109Z,64.47
2018-03-27T06:25:33.171Z,71.32
2018-03-27T06:26:22.234Z,77.87
2018-03-27T06:27:11.288Z,86.05
2018-03-27T06:28:00.354Z,77.03
2018-03-27T06:28:49.476Z,84.05
2018-03-27T06:29:38.538Z,89.43
2018-03-27T06:30:27.646Z,88.07
2018-03-27T06:31:16.708Z,62.65
2018-03-27T06:32:05.763Z,62.62
2018-03-27T06:32:54.842Z,61.78
2018-03-27T06:33:43.925Z,76.62
2018-03-27T06:34:33.306Z,108.20
2018-03-27T06:35:22.377Z,124.20
2018-03-27T06:36:11.447Z,118.35
2018-03-27T06:37:00.522Z,93.43
2018-03-27T06:37:49.646Z,73.68
2018-03-27T06:38:38.993Z,46.63
2018-03-27T06:39:28.048Z,54.78
2018-03-27T06:40:17.172Z,58.15
2018-03-27T06:41:06.232Z,50.75
2018-03-27T06:41:55.293Z,46.40
2018-03-27T06:42:44.362Z,40.72
2018-03-27T06:43:33.418Z,38.53
2018-03-27T06:44:22.486Z,38.72
2018-03-27T06:45:11.565Z,39.92
2018-03-27T06:46:00.711Z,37.60
2018-03-27T06:46:49.773Z,37.40
2018-03-27T06:47:38.855Z,25.67
2018-03-27T06:48:27.919Z,29.40
2018-03-27T06:49:16.990Z,28.00
2018-03-27T06:50:06.053Z,29.83
2018-03-27T06:50:55.321Z,28.45
2018-03-27T06:51:44.493Z,25.30
2018-03-27T06:52:33.549Z,23.60
2018-03-27T06:53:22.606Z,24.70
2018-03-27T06:54:11.673Z,22.60
2018-03-27T06:55:00.932Z,17.12
2018-03-27T06:55:50.066Z,29.90
2018-03-27T06:56:39.137Z,28.10
2018-03-27T06:57:28.208Z,22.10
2018-03-27T06:58:17.255Z,24.35
2018-03-27T06:59:06.444Z,17.58
2018-03-27T06:59:55.692Z,19.12
2018-03-27T07:00:44.769Z,17.05
2018-03-27T07:01:33.853Z,17.65
2018-03-27T07:02:22.934Z,14.45
2018-03-27T07:03:15.329Z,12.98
2018-03-27T07:04:04.392Z,12.32
2018-03-27T07:04:53.572Z,16.40
2018-03-27T07:05:42.664Z,22.15
2018-03-27T07:06:31.730Z,29.52
2018-03-27T07:07:20.910Z,23.25
2018-03-27T07:08:10.067Z,22.33
2018-03-27T07:08:59.134Z,31.37
2018-03-27T07:09:48.197Z,18.10
2018-03-27T07:10:37.272Z,23.12
2018-03-27T07:11:26.342Z,22.60
2018-03-27T07:12:15.445Z,25.75
2018-03-27T07:13:04.744Z,21.90
2018-03-27T07:13:53.987Z,22.67
2018-03-27T07:14:43.281Z,29.20
2018-03-27T07:15:32.337Z,42.17
2018-03-27T07:16:21.399Z,31.62
2018-03-27T07:17:10.527Z,50.38
2018-03-27T07:30:22.874Z,19.52
2018-03-27T07:31:12.060Z,35.72
2018-03-27T07:32:01.182Z,18.10
2018-03-27T07:32:50.289Z,16.52
2018-03-27T07:33:39.366Z,21.23
2018-03-27T07:34:28.501Z,20.23
2018-03-27T07:35:17.619Z,13.35
2018-03-27T07:36:06.770Z,12.48
2018-03-27T07:36:55.896Z,19.35
2018-03-27T07:37:45.015Z,17.08
2018-03-27T07:38:34.110Z,23.30
2018-03-27T07:39:23.210Z,17.27
2018-03-27T07:40:12.365Z,10.98
2018-03-27T07:41:01.466Z,47.70
2018-03-27T07:41:50.617Z,21.02
2018-03-27T07:42:39.703Z,36.15
2018-03-27T07:43:28.791Z,20.90
2018-03-27T07:44:17.887Z,17.40
2018-03-27T07:45:06.996Z,18.50
2018-03-27T07:45:56.130Z,212.45
2018-03-27T07:46:45.239Z,422.15
2018-03-27T07:47:34.440Z,36.92
2018-03-27T07:48:23.661Z,26.08
2018-03-27T07:49:12.838Z,26.40
2018-03-27T07:50:01.959Z,53.00
2018-03-27T07:50:51.263Z,51.22
2018-03-27T07:51:40.403Z,50.80
2018-03-27T07:52:29.501Z,44.80
2018-03-27T07:53:18.611Z,20.90
2018-03-27T07:54:07.702Z,15.77
2018-03-27T07:54:56.907Z,12.37
2018-03-27T07:55:46.000Z,14.25
2018-03-27T07:56:35.095Z,22.13
2018-03-27T07:57:24.214Z,19.37
2018-03-27T07:58:13.347Z,15.05
2018-03-27T07:59:02.442Z,14.80
2018-03-27T07:59:51.536Z,11.43
2018-03-27T08:00:40.677Z,11.18
2018-03-27T08:01:29.773Z,13.48
2018-03-27T08:02:18.850Z,12.35
2018-03-27T08:03:07.948Z,10.10
2018-03-27T08:03:57.093Z,11.40
2018-03-27T08:04:46.172Z,10.65
2018-03-27T08:05:35.256Z,12.13
2018-03-27T08:06:24.353Z,16.48
2018-03-27T08:07:13.439Z,12.90
2018-03-27T08:08:02.528Z,12.57
2018-03-27T08:08:51.626Z,11.57
2018-03-27T08:09:40.855Z,12.70
2018-03-27T08:10:29.961Z,13.68
2018-03-27T08:11:19.094Z,15.05
2018-03-27T08:12:08.173Z,32.20
2018-03-27T08:12:57.285Z,30.35
2018-03-27T08:13:46.375Z,30.50
2018-03-27T08:14:35.501Z,30.17
2018-03-27T08:15:24.640Z,30.67
2018-03-27T08:16:13.754Z,24.27
2018-03-27T08:17:02.872Z,23.60
2018-03-27T08:17:51.978Z,16.62
2018-03-27T08:18:41.091Z,19.20
2018-03-27T08:19:30.194Z,16.62
2018-03-27T08:20:19.834Z,16.60
2018-03-27T08:21:09.018Z,9.68
2018-03-27T08:21:58.183Z,11.38
2018-03-27T08:22:47.278Z,12.93
2018-03-27T08:23:36.381Z,13.73
2018-03-27T08:24:25.501Z,9.75
2018-03-27T08:25:14.618Z,18.50
2018-03-27T08:26:03.737Z,22.48
2018-03-27T08:26:52.949Z,11.68
2018-03-27T08:27:42.035Z,15.25
2018-03-27T08:28:31.166Z,29.95
2018-03-27T08:29:20.272Z,23.30
2018-03-27T08:30:09.413Z,15.85
2018-03-27T08:30:59.194Z,18.23
2018-03-27T08:31:48.323Z,23.08
2018-03-27T08:32:37.510Z,13.43
2018-03-27T08:33:26.608Z,25.95
2018-03-27T08:34:15.758Z,24.42
2018-03-27T08:35:04.856Z,12.40
2018-03-27T08:35:53.973Z,30.48
2018-03-27T08:36:43.112Z,33.33
2018-03-27T08:37:32.214Z,21.92
2018-03-27T08:38:21.327Z,20.33
2018-03-27T08:39:10.844Z,28.58
2018-03-27T08:39:59.929Z,23.52
2018-03-27T08:40:49.022Z,26.20
2018-03-27T08:41:38.103Z,23.45
2018-03-27T08:42:27.310Z,18.25
2018-03-27T08:43:16.410Z,25.25
2018-03-27T08:44:05.585Z,26.05
2018-03-27T08:44:55.406Z,40.83
2018-03-27T08:45:44.497Z,29.27
2018-03-27T08:46:33.661Z,25.55
2018-03-27T08:47:22.795Z,23.35
2018-03-27T08:48:11.983Z,26.75
2018-03-27T08:49:01.126Z,23.12
2018-03-27T08:49:50.242Z,21.75
2018-03-27T08:50:39.352Z,22.27
2018-03-27T08:51:28.495Z,26.20
2018-03-27T08:52:17.609Z,23.40
2018-03-27T08:53:06.733Z,29.27
2018-03-27T08:53:55.954Z,24.67
2018-03-27T08:54:45.043Z,25.35
2018-03-27T08:55:34.147Z,24.73
2018-03-27T08:56:23.252Z,26.80
2018-03-27T08:57:12.390Z,30.55
2018-03-27T08:58:01.501Z,36.35
2018-03-27T08:58:50.602Z,36.55
2018-03-27T08:59:39.743Z,30.95
2018-03-27T09:00:28.915Z,39.30
2018-03-27T09:01:18.046Z,43.45
2018-03-27T09:02:07.159Z,55.67
2018-03-27T09:02:56.303Z,61.10
2018-03-27T09:03:45.462Z,32.08
2018-03-27T09:04:34.614Z,31.95
2018-03-27T09:05:23.880Z,32.65
2018-03-27T09:06:12.951Z,32.92
2018-03-27T09:07:02.062Z,31.75
2018-03-27T09:07:51.186Z,27.62
2018-03-27T09:08:40.314Z,24.92
2018-03-27T09:09:29.551Z,24.60
2018-03-27T09:10:18.646Z,24.17
2018-03-27T09:11:07.795Z,26.23
2018-03-27T09:11:56.902Z,26.52
2018-03-27T09:12:46.011Z,26.77
2018-03-27T09:13:35.178Z,27.37
2018-03-27T09:14:24.288Z,26.42
2018-03-27T09:15:13.504Z,24.98
2018-03-27T09:16:02.609Z,26.25
2018-03-27T09:16:51.708Z,26.90
2018-03-27T09:17:40.885Z,20.83
2018-03-27T09:18:30.041Z,26.92
2018-03-27T09:19:19.354Z,31.58
2018-03-27T09:20:08.477Z,41.08
2018-03-27T09:20:57.700Z,29.10
2018-03-27T09:21:46.835Z,32.67
2018-03-27T09:22:35.975Z,31.05
2018-03-27T09:23:25.136Z,28.17
2018-03-27T09:24:14.247Z,28.08
2018-03-27T09:25:03.405Z,30.02
2018-03-27T09:25:52.538Z,36.70
2018-03-27T09:26:41.671Z,28.52
2018-03-27T09:27:30.860Z,27.67
2018-03-27T09:28:19.973Z,25.52
2018-03-27T09:29:09.114Z,26.62
2018-03-27T09:29:59.797Z,29.75
2018-03-27T09:30:48.914Z,25.48
2018-03-27T09:31:38.027Z,24.92
2018-03-27T09:32:27.148Z,18.85
2018-03-27T09:33:16.287Z,19.15
2018-03-27T09:34:05.440Z,19.73
2018-03-27T09:34:54.568Z,15.63
2018-03-27T09:35:43.751Z,15.48
2018-03-27T09:36:32.848Z,15.88
2018-03-27T09:37:22.074Z,15.00
2018-03-27T09:38:11.194Z,14.80
2018-03-27T09:39:00.285Z,14.43
2018-03-27T09:39:49.414Z,19.40
2018-03-27T09:40:38.535Z,16.77
2018-03-27T09:41:27.655Z,17.02
2018-03-27T09:42:17.459Z,14.48
2018-03-27T09:43:06.739Z,15.48
2018-03-27T09:43:55.866Z,18.58
2018-03-27T09:44:44.991Z,18.67
2018-03-27T09:45:34.144Z,17.25
2018-03-27T09:46:23.250Z,19.52
2018-03-27T09:47:12.347Z,23.42
2018-03-27T09:48:01.511Z,22.62
2018-03-27T09:48:50.880Z,20.83
2018-03-27T09:49:40.003Z,22.05
2018-03-27T09:50:29.153Z,27.10
2018-03-27T09:51:18.291Z,25.42
2018-03-27T09:52:07.378Z,27.02
2018-03-27T09:52:56.502Z,25.58
2018-03-27T09:53:45.599Z,32.72
2018-03-27T09:54:34.797Z,45.35
2018-03-27T09:55:23.938Z,35.22
2018-03-27T09:56:13.036Z,34.08
2018-03-27T09:57:02.149Z,28.90
2018-03-27T09:57:51.357Z,44.20
2018-03-27T09:58:40.510Z,35.55
2018-03-27T09:59:29.654Z,30.45
2018-03-27T10:00:24.548Z,24.95
2018-03-27T10:01:13.757Z,33.10
2018-03-27T10:02:02.947Z,36.13
2018-03-27T10:02:52.066Z,28.50
2018-03-27T10:03:41.198Z,19.08
2018-03-27T10:04:31.150Z,12.68
2018-03-27T10:05:20.258Z,8.35
2018-03-27T10:06:09.458Z,7.60
2018-03-27T10:06:58.553Z,7.37
2018-03-27T10:07:47.634Z,6.65
2018-03-27T10:08:36.719Z,5.85
2018-03-27T10:09:25.808Z,8.05
2018-03-27T10:10:14.907Z,8.30
2018-03-27T10:11:04.091Z,7.15
2018-03-27T10:11:53.219Z,7.07
2018-03-27T10:12:42.317Z,13.25
2018-03-27T10:13:31.409Z,9.48
2018-03-27T10:14:20.530Z,11.98
2018-03-27T10:15:09.643Z,28.45
2018-03-27T10:15:58.738Z,30.42
2018-03-27T10:16:47.878Z,22.80
2018-03-27T10:17:37.084Z,13.70
2018-03-27T10:18:26.373Z,19.80
2018-03-27T10:19:15.501Z,14.07
2018-03-27T10:20:04.610Z,13.52
2018-03-27T10:20:53.786Z,17.55
2018-03-27T10:21:42.899Z,35.45
2018-03-27T10:22:32.012Z,31.83
2018-03-27T10:23:21.222Z,19.77
2018-03-27T10:24:10.344Z,22.85
2018-03-27T10:24:59.466Z,16.80
2018-03-27T10:25:49.167Z,14.52
2018-03-27T10:26:38.293Z,10.98
2018-03-27T10:27:27.468Z,13.70
2018-03-27T10:28:16.574Z,16.67
2018-03-27T10:29:05.796Z,14.50
2018-03-27T10:29:54.952Z,9.80
2018-03-27T10:30:44.895Z,10.18
2018-03-27T10:31:34.006Z,11.00
2018-03-27T10:32:23.100Z,10.45
2018-03-27T10:33:12.294Z,11.60
2018-03-27T10:34:01.410Z,11.35
2018-03-27T10:34:50.626Z,10.55
2018-03-27T10:35:39.842Z,13.18
2018-03-27T10:36:28.931Z,11.25
2018-03-27T10:37:18.061Z,18.23
2018-03-27T10:38:07.146Z,23.83
2018-03-27T10:38:56.272Z,17.58
2018-03-27T10:39:45.401Z,24.35
2018-03-27T10:40:34.502Z,20.98
2018-03-27T10:41:23.657Z,22.65
2018-03-27T10:42:12.753Z,37.45
2018-03-27T10:43:01.853Z,28.27
2018-03-27T10:43:51.006Z,20.37
2018-03-27T10:44:40.128Z,25.12
2018-03-27T10:45:29.248Z,24.27
2018-03-27T10:46:18.380Z,21.25
2018-03-27T10:47:07.481Z,14.95
2018-03-27T10:47:56.633Z,15.48
2018-03-27T10:48:45.723Z,15.00
2018-03-27T10:49:34.864Z,14.52
2018-03-27T10:50:23.953Z,10.70
2018-03-27T10:51:13.059Z,9.38
2018-03-27T10:52:02.255Z,10.25
2018-03-27T10:52:51.345Z,7.65
2018-03-27T10:53:40.438Z,12.00
2018-03-27T10:54:29.525Z,4.78
2018-03-27T10:55:18.615Z,6.60
2018-03-27T10:56:07.724Z,25.55
2018-03-27T10:56:56.822Z,18.65
2018-03-27T10:57:46.032Z,18.23
2018-03-27T10:58:35.127Z,27.50
2018-03-27T10:59:24.245Z,19.23
2018-03-27T11:00:13.877Z,26.35
2018-03-27T11:01:03.052Z,13.43
2018-03-27T11:01:52.153Z,29.05
2018-03-27T11:02:41.268Z,27.50
2018-03-27T11:03:30.376Z,19.00
2018-03-27T11:04:19.504Z,9.98
2018-03-27T11:05:08.662Z,6.90
2018-03-27T11:05:57.761Z,9.65
2018-03-27T11:06:46.923Z,7.90
2018-03-27T11:07:36.023Z,12.75
2018-03-27T11:08:25.141Z,9.45
2018-03-27T11:09:14.278Z,15.77
2018-03-27T11:10:03.513Z,29.10
2018-03-27T11:10:52.682Z,16.73
2018-03-27T11:11:41.806Z,11.32
2018-03-27T11:12:30.924Z,17.65
2018-03-27T11:13:20.051Z,19.27
2018-03-27T11:14:09.151Z,31.50
2018-03-27T11:14:58.408Z,12.57
2018-03-27T11:15:47.605Z,14.52
2018-03-27T11:16:36.706Z,28.83
2018-03-27T11:17:25.825Z,11.60
2018-03-27T11:18:14.935Z,18.40
2018-03-27T11:19:04.061Z,31.80
2018-03-27T11:19:53.201Z,26.75
2018-03-27T11:20:42.359Z,24.90
2018-03-27T11:21:31.491Z,26.87
2018-03-27T11:22:21.517Z,18.37
2018-03-27T11:23:10.633Z,27.45
2018-03-27T11:23:59.743Z,17.50
2018-03-27T11:24:49.532Z,12.25
2018-03-27T11:25:38.638Z,15.13
2018-03-27T11:26:27.743Z,16.75
2018-03-27T11:27:16.862Z,18.48
2018-03-27T11:28:06.008Z,18.42
2018-03-27T11:28:55.108Z,18.77
2018-03-27T11:29:44.209Z,20.95
2018-03-27T11:30:33.396Z,14.55
2018-03-27T11:31:22.527Z,15.20
2018-03-27T11:32:11.677Z,31.10
2018-03-27T11:33:00.799Z,27.42
2018-03-27T11:33:50.006Z,21.20
2018-03-27T11:34:39.117Z,19.35
2018-03-27T11:35:28.226Z,17.80
2018-03-27T11:36:17.364Z,68.50
2018-03-27T11:37:06.491Z,39.58
2018-03-27T11:37:55.630Z,17.60
2018-03-27T11:38:44.743Z,16.25
2018-03-27T11:39:33.842Z,24.25
2018-03-27T11:40:22.948Z,27.13
2018-03-27T11:41:12.048Z,31.17
2018-03-27T11:42:01.231Z,37.38
2018-03-27T11:42:50.447Z,20.15
2018-03-27T11:43:39.550Z,21.83
2018-03-27T11:44:28.663Z,28.62
2018-03-27T11:45:17.787Z,32.33
2018-03-27T11:46:06.902Z,29.83
2018-03-27T11:46:56.031Z,22.62
2018-03-27T11:47:45.138Z,22.67
2018-03-27T11:48:34.328Z,18.58
2018-03-27T11:49:23.428Z,23.08
2018-03-27T11:50:12.582Z,27.77
2018-03-27T11:51:01.770Z,24.40
2018-03-27T17:02:04.389Z,80.00
2018-03-27T17:02:53.543Z,75.37
2018-03-27T17:03:42.693Z,291.85
2018-03-27T17:04:31.766Z,188.12
2018-03-27T17:05:20.831Z,221.82
2018-03-27T17:06:09.903Z,228.62
2018-03-27T17:06:58.960Z,78.37
2018-03-27T17:07:48.135Z,54.30
2018-03-27T17:08:37.192Z,72.30
2018-03-27T17:09:26.236Z,55.12
2018-03-27T17:10:15.286Z,46.33
2018-03-27T17:11:04.350Z,53.63
2018-03-27T17:11:53.453Z,85.55
2018-03-27T17:12:42.510Z,206.65
2018-03-27T17:13:34.544Z,140.57
2018-03-27T17:14:23.849Z,150.02
2018-03-27T17:15:12.900Z,131.77
2018-03-27T17:16:01.990Z,138.93
2018-03-27T17:16:51.067Z,95.35
2018-03-27T17:17:40.165Z,46.13
2018-03-27T17:18:29.213Z,50.50
2018-03-27T17:19:18.374Z,58.10
2018-03-27T17:20:07.416Z,48.47
2018-03-27T17:20:56.475Z,44.20
2018-03-27T17:21:45.546Z,73.72
2018-03-27T17:22:34.605Z,69.80
2018-03-27T17:23:23.674Z,118.03
2018-03-27T17:24:12.729Z,78.97
2018-03-27T17:25:02.059Z,61.90
2018-03-27T17:25:51.185Z,44.70
2018-03-27T17:26:40.245Z,113.70
2018-03-27T17:27:29.338Z,102.07
2018-03-27T17:28:18.433Z,119.95
2018-03-27T17:29:07.486Z,58.42
2018-03-27T17:29:56.605Z,64.37
2018-03-27T17:30:45.828Z,48.87
2018-03-27T17:31:35.181Z,52.58
2018-03-27T17:32:24.234Z,54.72
2018-03-27T17:33:13.308Z,90.95
2018-03-27T17:34:02.439Z,77.70
2018-03-27T17:34:51.484Z,63.30
2018-03-27T17:35:40.535Z,59.15
2018-03-27T17:36:29.588Z,44.83
2018-03-27T17:37:18.635Z,50.65
2018-03-27T17:38:07.701Z,69.57
2018-03-27T17:38:56.806Z,78.22
2018-03-27T17:39:46.017Z,83.82
2018-03-27T17:40:35.098Z,119.55
2018-03-27T17:41:24.159Z,156.18
2018-03-27T17:42:13.257Z,190.85
2018-03-27T17:43:02.326Z,164.93
2018-03-27T17:43:51.425Z,163.43
2018-03-27T17:44:40.511Z,145.98
2018-03-27T17:45:29.694Z,148.38
2018-03-27T17:46:18.753Z,146.57
2018-03-27T17:47:07.869Z,146.50
2018-03-27T17:47:57.625Z,132.68
2018-03-27T17:48:46.680Z,127.47
2018-03-27T17:49:35.731Z,119.78
2018-03-27T17:50:24.785Z,97.97
2018-03-27T17:51:13.835Z,90.90
2018-03-27T17:52:02.934Z,96.30
2018-03-27T17:52:51.999Z,92.20
2018-03-27T17:53:41.190Z,88.95
2018-03-27T17:54:30.245Z,109.57
2018-03-27T17:55:19.308Z,123.25
2018-03-27T17:56:08.369Z,140.62
2018-03-27T17:56:57.440Z,150.93
2018-03-27T17:57:46.592Z,170.02
2018-03-27T17:58:35.797Z,116.37
2018-03-27T17:59:24.856Z,94.97
2018-03-27T18:00:15.028Z,93.45
2018-03-27T18:01:04.335Z,119.47
2018-03-27T18:01:53.430Z,124.50
2018-03-27T18:02:42.515Z,182.52
2018-03-27T18:03:31.584Z,130.27
2018-03-27T18:04:20.773Z,142.70
2018-03-27T18:05:09.829Z,127.03
2018-03-27T18:05:58.876Z,130.05
2018-03-27T18:06:47.931Z,109.40
2018-03-27T18:07:36.990Z,110.82
2018-03-27T18:08:26.056Z,129.77
2018-03-27T18:09:15.111Z,90.32
2018-03-27T18:10:04.234Z,76.03
2018-03-27T18:10:53.292Z,63.72
2018-03-27T18:11:42.340Z,71.12
2018-03-27T18:12:31.401Z,77.80
2018-03-27T18:13:20.490Z,68.47
2018-03-27T18:14:09.546Z,58.53
2018-03-27T18:14:58.584Z,56.75
2018-03-27T18:15:47.733Z,59.50
2018-03-27T18:16:36.787Z,66.57
2018-03-27T18:17:25.863Z,73.40
2018-03-27T18:18:14.912Z,63.45
2018-03-27T18:19:03.969Z,121.57
2018-03-27T18:19:53.036Z,212.43
2018-03-27T18:20:42.102Z,319.20
2018-03-27T18:21:31.208Z,179.43
2018-03-27T18:22:20.259Z,139.05
2018-03-27T18:23:09.334Z,164.65
2018-03-27T18:23:58.408Z,178.55
2018-03-27T18:24:47.502Z,119.37
2018-03-27T18:25:36.568Z,122.45
2018-03-27T18:26:26.289Z,87.82
2018-03-27T18:27:15.582Z,66.68
2018-03-27T18:28:04.645Z,63.22
2018-03-27T18:28:53.696Z,54.05